createdAt,value
2018-03-18T00:00:10.352Z,83.85
2018-03-18T00:01:09.183Z,84.14
2018-03-18T00:02:09.131Z,84.02
2018-03-18T00:03:09.141Z,84.22
2018-03-18T00:04:09.138Z,84.20
2018-03-18T00:05:09.146Z,84.28
2018-03-18T00:06:09.083Z,84.35
2018-03-18T00:07:09.174Z,84.43
2018-03-18T00:08:09.160Z,84.51
2018-03-18T00:09:09.188Z,84.65
2018-03-18T00:10:12.305Z,84.78
2018-03-18T00:11:09.075Z,84.82
2018-03-18T00:12:09.075Z,85.11
2018-03-18T00:13:09.099Z,85.25
2018-03-18T00:14:09.131Z,85.10
2018-03-18T00:15:09.149Z,85.24
2018-03-18T00:16:24.204Z,85.08
2018-03-18T00:17:09.140Z,84.85
2018-03-18T00:18:09.140Z,85.01
2018-03-18T00:19:09.140Z,84.70
2018-03-18T00:20:09.156Z,84.42
2018-03-18T00:21:09.173Z,84.21
2018-03-18T00:22:09.072Z,84.31
2018-03-18T00:23:09.178Z,84.23
2018-03-18T00:24:09.180Z,84.17
2018-03-18T00:25:09.197Z,84.46
2018-03-18T00:26:09.196Z,84.45
2018-03-18T00:27:09.211Z,84.70
2018-03-18T00:28:09.103Z,84.80
2018-03-18T00:29:09.115Z,84.93
2018-03-18T00:30:09.172Z,85.01
2018-03-18T00:31:09.087Z,85.03
2018-03-18T00:32:09.134Z,84.81
2018-03-18T00:33:09.146Z,84.96
2018-03-18T00:34:09.101Z,85.07
2018-03-18T00:35:09.145Z,84.89
2018-03-18T00:36:09.160Z,84.84
2018-03-18T00:37:09.164Z,84.99
2018-03-18T00:38:09.075Z,85.12
2018-03-18T00:39:09.176Z,85.20
2018-03-18T00:40:09.183Z,85.41
2018-03-18T00:41:09.197Z,85.50
2018-03-18T00:42:09.200Z,85.56
2018-03-18T00:43:09.215Z,85.71
2018-03-18T00:44:09.113Z,85.71
2018-03-18T00:45:09.120Z,85.88
2018-03-18T00:46:09.129Z,85.98
2018-03-18T00:47:09.126Z,86.03
2018-03-18T00:48:09.154Z,86.19
2018-03-18T00:49:09.148Z,86.19
2018-03-18T00:50:09.164Z,85.96
2018-03-18T00:51:09.164Z,85.40
2018-03-18T00:52:09.098Z,85.22
2018-03-18T00:53:09.183Z,85.40
2018-03-18T00:54:09.189Z,85.55
2018-03-18T00:55:09.209Z,85.34
2018-03-18T00:56:09.212Z,85.62
2018-03-18T00:57:09.199Z,85.77
2018-03-18T00:58:09.083Z,85.94
2018-03-18T00:59:09.116Z,86.25
2018-03-18T01:00:10.446Z,86.40
2018-03-18T01:01:09.124Z,86.57
2018-03-18T01:02:09.156Z,86.48
2018-03-18T01:03:09.087Z,86.51
2018-03-18T01:04:09.089Z,86.67
2018-03-18T01:05:09.151Z,86.85
2018-03-18T01:06:09.158Z,86.75
2018-03-18T01:07:09.173Z,86.56
2018-03-18T01:08:09.100Z,86.65
2018-03-18T01:09:09.101Z,86.78
2018-03-18T01:10:09.179Z,86.95
2018-03-18T01:11:09.091Z,86.95
2018-03-18T01:12:09.207Z,87.04
2018-03-18T01:13:09.212Z,87.07
2018-03-18T01:14:09.120Z,86.96
2018-03-18T01:15:09.105Z,87.04
2018-03-18T01:16:09.088Z,87.21
2018-03-18T01:17:09.139Z,87.41
2018-03-18T01:18:09.095Z,87.54
2018-03-18T01:19:09.152Z,87.79
2018-03-18T01:20:09.185Z,88.01
2018-03-18T01:21:09.106Z,88.13
2018-03-18T01:22:09.100Z,88.32
2018-03-18T01:23:09.107Z,88.39
2018-03-18T01:24:09.183Z,88.46
2018-03-18T01:25:09.198Z,88.48
2018-03-18T01:26:09.104Z,88.42
2018-03-18T01:27:09.095Z,88.58
2018-03-18T01:28:09.106Z,88.71
2018-03-18T01:29:09.121Z,88.80
2018-03-18T01:30:09.111Z,88.86
2018-03-18T01:31:09.132Z,89.02
2018-03-18T01:32:09.135Z,89.00
2018-03-18T01:33:09.122Z,89.04
2018-03-18T01:34:09.160Z,89.05
2018-03-18T01:35:09.155Z,89.02
2018-03-18T01:36:09.163Z,88.42
2018-03-18T01:37:09.228Z,88.40
2018-03-18T01:38:09.113Z,88.43
2018-03-18T01:39:09.182Z,88.03
2018-03-18T01:40:09.105Z,87.91
2018-03-18T01:41:09.115Z,87.97
2018-03-18T01:42:09.172Z,87.60
2018-03-18T01:43:09.133Z,87.39
2018-03-18T01:44:09.132Z,87.36
2018-03-18T01:45:09.219Z,87.45
2018-03-18T01:46:09.161Z,87.47
2018-03-18T01:47:09.172Z,87.49
2018-03-18T01:48:09.119Z,87.59
2018-03-18T01:49:09.254Z,87.46
2018-03-18T01:50:09.163Z,87.54
2018-03-18T01:51:09.171Z,87.30
2018-03-18T01:52:09.177Z,87.19
2018-03-18T01:53:09.207Z,87.17
2018-03-18T01:54:09.195Z,87.11
2018-03-18T01:55:09.228Z,87.15
2018-03-18T01:56:09.199Z,87.21
2018-03-18T01:57:09.199Z,86.95
2018-03-18T01:58:09.264Z,87.14
2018-03-18T01:59:09.240Z,87.03
2018-03-18T02:00:10.358Z,86.73
2018-03-18T02:01:09.130Z,86.62
2018-03-18T02:02:09.160Z,86.65
2018-03-18T02:03:09.156Z,86.51
2018-03-18T02:04:09.211Z,86.61
2018-03-18T02:05:09.142Z,86.50
2018-03-18T02:06:09.175Z,86.46
2018-03-18T02:07:09.174Z,86.35
2018-03-18T02:08:09.185Z,86.01
2018-03-18T02:09:09.196Z,85.92
2018-03-18T02:10:09.128Z,85.77
2018-03-18T02:11:09.429Z,85.86
2018-03-18T02:12:09.212Z,85.69
2018-03-18T02:13:09.219Z,85.76
2018-03-18T02:14:09.237Z,85.67
2018-03-18T02:15:09.230Z,85.68
2018-03-18T02:16:09.240Z,85.76
2018-03-18T02:17:09.249Z,85.73
2018-03-18T02:18:09.147Z,85.42
2018-03-18T02:19:09.160Z,85.31
2018-03-18T02:20:09.136Z,85.29
2018-03-18T02:21:09.174Z,85.41
2018-03-18T02:22:09.167Z,85.52
2018-03-18T02:23:09.191Z,85.58
2018-03-18T02:24:09.195Z,85.62
2018-03-18T02:25:09.200Z,85.84
2018-03-18T02:26:09.164Z,85.96
2018-03-18T02:27:09.203Z,85.71
2018-03-18T02:28:09.220Z,85.92
2018-03-18T02:29:09.257Z,85.61
2018-03-18T02:30:09.137Z,85.38
2018-03-18T02:31:09.285Z,85.49
2018-03-18T02:32:09.258Z,85.52
2018-03-18T02:33:09.272Z,85.46
2018-03-18T02:34:09.265Z,85.58
2018-03-18T02:35:09.267Z,85.53
2018-03-18T02:36:09.153Z,85.58
2018-03-18T02:37:09.180Z,85.92
2018-03-18T02:38:09.302Z,85.76
2018-03-18T02:39:09.204Z,85.77
2018-03-18T02:40:09.161Z,85.69
2018-03-18T02:41:09.207Z,85.73
2018-03-18T02:42:09.210Z,85.80
2018-03-18T02:43:09.225Z,85.97
2018-03-18T02:44:09.221Z,85.98
2018-03-18T02:45:09.233Z,86.06
2018-03-18T02:46:09.235Z,85.88
2018-03-18T02:47:09.254Z,86.17
2018-03-18T02:48:09.144Z,86.05
2018-03-18T02:49:09.159Z,86.13
2018-03-18T02:50:09.149Z,86.28
2018-03-18T02:51:09.153Z,86.35
2018-03-18T02:52:09.285Z,86.68
2018-03-18T02:53:09.191Z,86.65
2018-03-18T02:54:09.141Z,86.80
2018-03-18T02:55:09.164Z,86.87
2018-03-18T02:56:09.156Z,86.86
2018-03-18T02:57:09.213Z,87.04
2018-03-18T02:58:09.168Z,87.12
2018-03-18T02:59:09.228Z,87.03
2018-03-18T03:00:12.838Z,87.17
2018-03-18T03:01:09.241Z,86.82
2018-03-18T03:02:09.252Z,86.83
2018-03-18T03:03:09.279Z,87.18
2018-03-18T03:04:09.256Z,87.25
2018-03-18T03:05:09.160Z,87.22
2018-03-18T03:06:09.230Z,87.11
2018-03-18T03:07:09.151Z,87.27
2018-03-18T03:08:09.198Z,87.27
2018-03-18T03:09:09.164Z,87.46
2018-03-18T03:10:09.200Z,87.61
2018-03-18T03:11:09.217Z,87.69
2018-03-18T03:12:09.214Z,87.34
2018-03-18T03:13:09.238Z,87.08
2018-03-18T03:14:09.333Z,87.29
2018-03-18T03:15:09.254Z,87.31
2018-03-18T03:16:09.240Z,87.28
2018-03-18T03:17:09.385Z,87.52
2018-03-18T03:18:09.261Z,87.59
2018-03-18T03:19:09.276Z,87.38
2018-03-18T03:20:09.273Z,87.26
2018-03-18T03:21:09.280Z,87.30
2018-03-18T03:22:09.185Z,87.27
2018-03-18T03:23:09.163Z,87.11
2018-03-18T03:24:09.200Z,87.09
2018-03-18T03:25:09.195Z,86.96
2018-03-18T03:26:09.164Z,86.99
2018-03-18T03:27:09.176Z,86.85
2018-03-18T03:28:09.174Z,86.71
2018-03-18T03:29:09.151Z,86.78
2018-03-18T03:30:09.169Z,86.82
2018-03-18T03:31:09.255Z,86.74
2018-03-18T03:32:09.250Z,86.71
2018-03-18T03:33:09.422Z,86.66
2018-03-18T03:34:09.287Z,86.58
2018-03-18T03:35:09.280Z,86.39
2018-03-18T03:36:09.289Z,86.44
2018-03-18T03:37:09.289Z,86.72
2018-03-18T03:38:09.183Z,86.64
2018-03-18T03:39:09.201Z,86.61
2018-03-18T03:40:09.167Z,86.40
2018-03-18T03:41:09.218Z,86.46
2018-03-18T03:42:09.195Z,86.41
2018-03-18T03:43:09.242Z,86.59
2018-03-18T03:44:09.236Z,86.52
2018-03-18T03:45:09.249Z,86.35
2018-03-18T03:46:09.374Z,86.43
2018-03-18T03:47:09.259Z,86.28
2018-03-18T03:48:09.265Z,86.36
2018-03-18T03:49:09.267Z,86.50
2018-03-18T03:50:09.274Z,86.57
2018-03-18T03:51:09.705Z,86.62
2018-03-18T03:52:09.291Z,86.74
2018-03-18T03:53:09.163Z,86.59
2018-03-18T03:54:09.170Z,86.70
2018-03-18T03:55:09.212Z,86.68
2018-03-18T03:56:09.189Z,86.56
2018-03-18T03:57:09.192Z,86.81
2018-03-18T03:58:09.176Z,86.68
2018-03-18T03:59:09.242Z,86.33
2018-03-18T04:00:10.469Z,86.60
2018-03-18T04:01:09.246Z,86.58
2018-03-18T04:02:09.252Z,86.53
2018-03-18T04:03:09.259Z,86.04
2018-03-18T04:04:09.272Z,86.06
2018-03-18T04:05:09.189Z,86.08
2018-03-18T04:06:09.192Z,86.33
2018-03-18T04:07:09.200Z,86.12
2018-03-18T04:08:09.300Z,86.28
2018-03-18T04:09:09.314Z,86.42
2018-03-18T04:10:09.191Z,86.38
2018-03-18T04:11:09.213Z,86.43
2018-03-18T04:12:09.181Z,86.38
2018-03-18T04:13:09.189Z,86.49
2018-03-18T04:14:09.179Z,86.48
2018-03-18T04:15:09.255Z,86.36
2018-03-18T04:16:09.257Z,86.58
2018-03-18T04:17:09.192Z,86.49
2018-03-18T04:18:09.184Z,86.37
2018-03-18T04:19:09.193Z,86.26
2018-03-18T04:20:09.188Z,86.25
2018-03-18T04:21:09.186Z,86.27
2018-03-18T04:22:09.296Z,86.06
2018-03-18T04:23:09.192Z,86.05
2018-03-18T04:24:10.004Z,85.92
2018-03-18T04:25:09.207Z,86.14
2018-03-18T04:26:09.223Z,86.12
2018-03-18T04:27:09.225Z,85.92
2018-03-18T04:28:09.180Z,85.76
2018-03-18T04:29:09.182Z,86.01
2018-03-18T04:30:09.178Z,85.88
2018-03-18T04:31:09.256Z,85.96
2018-03-18T04:32:09.194Z,86.08
2018-03-18T04:33:09.256Z,86.08
2018-03-18T04:34:09.196Z,86.31
2018-03-18T04:35:09.284Z,86.18
2018-03-18T04:36:09.182Z,85.83
2018-03-18T04:37:09.286Z,85.88
2018-03-18T04:38:09.294Z,86.01
2018-03-18T04:39:09.324Z,86.09
2018-03-18T04:40:09.206Z,85.84
2018-03-18T04:41:09.215Z,85.82
2018-03-18T04:42:09.190Z,85.57
2018-03-18T04:43:09.187Z,85.27
2018-03-18T04:44:09.240Z,85.32
2018-03-18T04:45:09.196Z,85.30
2018-03-18T04:46:09.249Z,85.35
2018-03-18T04:47:09.265Z,85.34
2018-03-18T04:48:09.268Z,84.87
2018-03-18T04:49:09.272Z,84.68
2018-03-18T04:50:09.277Z,84.79
2018-03-18T04:51:09.287Z,84.58
2018-03-18T04:52:09.242Z,84.60
2018-03-18T04:53:09.302Z,84.62
2018-03-18T04:54:09.407Z,84.13
2018-03-18T04:55:09.204Z,83.97
2018-03-18T04:56:09.426Z,84.13
2018-03-18T04:57:09.232Z,84.32
2018-03-18T04:58:09.231Z,84.36
2018-03-18T04:59:09.254Z,84.39
2018-03-18T05:00:10.482Z,84.13
2018-03-18T05:01:09.256Z,84.23
2018-03-18T05:02:09.244Z,83.83
2018-03-18T05:03:09.259Z,83.40
2018-03-18T05:04:09.288Z,83.37
2018-03-18T05:05:09.281Z,83.79
2018-03-18T05:06:09.292Z,83.87
2018-03-18T05:07:09.309Z,83.94
2018-03-18T05:08:09.301Z,83.87
2018-03-18T05:09:09.212Z,83.91
2018-03-18T05:10:09.235Z,84.08
2018-03-18T05:11:09.230Z,84.02
2018-03-18T05:12:09.230Z,84.19
2018-03-18T05:13:09.214Z,83.86
2018-03-18T05:14:09.219Z,83.49
2018-03-18T05:15:09.253Z,83.79
2018-03-18T05:16:09.264Z,83.48
2018-03-18T05:17:09.258Z,83.82
2018-03-18T05:18:09.216Z,83.90
2018-03-18T05:19:09.281Z,84.17
2018-03-18T05:20:09.216Z,83.78
2018-03-18T05:21:09.291Z,83.58
2018-03-18T05:22:09.217Z,83.47
2018-03-18T05:23:09.373Z,83.32
2018-03-18T05:24:09.215Z,83.50
2018-03-18T05:25:11.711Z,83.40
2018-03-18T05:26:09.219Z,83.22
2018-03-18T05:27:09.227Z,83.15
2018-03-18T05:28:09.258Z,82.98
2018-03-18T05:29:09.252Z,82.83
2018-03-18T05:30:09.252Z,82.90
2018-03-18T05:31:09.260Z,82.77
2018-03-18T05:32:09.280Z,82.46
2018-03-18T05:33:09.276Z,82.53
2018-03-18T05:34:09.275Z,82.30
2018-03-18T05:35:09.284Z,81.80
2018-03-18T05:36:09.291Z,81.80
2018-03-18T05:37:09.299Z,82.02
2018-03-18T05:38:09.312Z,81.90
2018-03-18T05:39:09.316Z,81.95
2018-03-18T05:40:09.216Z,81.79
2018-03-18T05:41:09.240Z,81.97
2018-03-18T05:42:09.240Z,81.99
2018-03-18T05:43:09.229Z,81.96
2018-03-18T05:44:09.347Z,82.09
2018-03-18T05:45:09.252Z,81.74
2018-03-18T05:46:09.261Z,81.93
2018-03-18T05:47:09.240Z,81.74
2018-03-18T05:48:09.286Z,81.71
2018-03-18T05:49:09.277Z,81.75
2018-03-18T05:50:09.283Z,81.68
2018-03-18T05:51:09.297Z,81.86
2018-03-18T05:52:09.300Z,81.56
2018-03-18T05:53:09.228Z,81.63
2018-03-18T05:54:09.320Z,81.51
2018-03-18T05:55:09.328Z,81.34
2018-03-18T05:56:09.337Z,81.31
2018-03-18T05:57:09.332Z,81.33
2018-03-18T05:58:09.223Z,81.56
2018-03-18T05:59:09.219Z,81.59
2018-03-18T06:00:10.480Z,81.75
2018-03-18T06:01:09.278Z,81.68
2018-03-18T06:02:09.235Z,81.29
2018-03-18T06:03:09.280Z,81.21
2018-03-18T06:04:09.284Z,81.30
2018-03-18T06:05:09.243Z,81.30
2018-03-18T06:06:09.308Z,81.52
2018-03-18T06:07:09.244Z,81.15
2018-03-18T06:08:09.312Z,81.21
2018-03-18T06:09:09.321Z,81.43
2018-03-18T06:10:09.337Z,81.39
2018-03-18T06:11:09.337Z,81.28
2018-03-18T06:12:09.240Z,81.47
2018-03-18T06:13:09.344Z,80.82
2018-03-18T06:14:09.351Z,81.27
2018-03-18T06:15:09.346Z,81.31
2018-03-18T06:16:09.374Z,81.41
2018-03-18T06:17:09.269Z,81.44
2018-03-18T06:18:09.292Z,81.11
2018-03-18T06:19:09.289Z,80.79
2018-03-18T06:20:09.236Z,80.74
2018-03-18T06:21:09.304Z,80.73
2018-03-18T06:22:09.244Z,80.76
2018-03-18T06:23:09.307Z,80.16
2018-03-18T06:24:09.244Z,80.04
2018-03-18T06:25:09.265Z,80.32
2018-03-18T06:26:09.340Z,80.41
2018-03-18T06:27:09.240Z,80.44
2018-03-18T06:28:09.457Z,79.94
2018-03-18T06:29:09.444Z,80.21
2018-03-18T06:30:09.244Z,80.18
2018-03-18T06:31:09.232Z,80.43
2018-03-18T06:32:09.250Z,79.86
2018-03-18T06:33:09.275Z,80.15
2018-03-18T06:34:09.283Z,80.02
2018-03-18T06:35:09.273Z,80.03
2018-03-18T06:36:09.396Z,79.63
2018-03-18T06:37:09.303Z,79.50
2018-03-18T06:38:09.312Z,78.92
2018-03-18T06:39:09.325Z,78.78
2018-03-18T06:40:09.324Z,79.07
2018-03-18T06:41:09.429Z,79.08
2018-03-18T06:42:09.327Z,78.81
2018-03-18T06:43:09.270Z,78.94
2018-03-18T06:44:09.357Z,78.85
2018-03-18T06:45:09.308Z,79.33
2018-03-18T06:46:09.362Z,78.63
2018-03-18T06:47:09.378Z,78.79
2018-03-18T06:48:09.379Z,78.53
2018-03-18T06:49:09.283Z,79.13
2018-03-18T06:50:09.303Z,79.33
2018-03-18T06:51:09.338Z,79.19
2018-03-18T06:52:09.238Z,79.34
2018-03-18T06:53:09.259Z,79.23
2018-03-18T06:54:09.334Z,79.36
2018-03-18T06:55:09.335Z,79.30
2018-03-18T06:56:09.336Z,78.44
2018-03-18T06:57:09.980Z,78.82
2018-03-18T06:58:09.798Z,78.27
2018-03-18T06:59:09.592Z,78.57
2018-03-18T07:00:10.905Z,78.55
2018-03-18T07:01:09.487Z,78.38
2018-03-18T07:02:10.158Z,78.21
2018-03-18T07:03:09.753Z,78.87
2018-03-18T07:04:09.489Z,79.08
2018-03-18T07:05:13.479Z,78.90
2018-03-18T07:06:09.400Z,78.93
2018-03-18T07:07:09.307Z,78.66
2018-03-18T07:08:09.823Z,78.29
2018-03-18T07:09:09.324Z,78.30
2018-03-18T07:10:09.347Z,78.26
2018-03-18T07:11:09.540Z,78.14
2018-03-18T07:12:09.282Z,78.67
2018-03-18T07:13:09.474Z,77.89
2018-03-18T07:14:09.355Z,77.87
2018-03-18T07:15:09.352Z,78.13
2018-03-18T07:16:09.366Z,77.67
2018-03-18T07:17:09.382Z,77.30
2018-03-18T07:18:10.000Z,77.79
2018-03-18T07:19:09.392Z,77.78
2018-03-18T07:20:09.958Z,78.23
2018-03-18T07:21:09.304Z,78.53
2018-03-18T07:22:09.312Z,78.25
2018-03-18T07:23:09.420Z,78.19
2018-03-18T07:24:09.323Z,77.71
2018-03-18T07:25:09.328Z,77.40
2018-03-18T07:26:09.353Z,78.05
2018-03-18T07:27:09.345Z,78.34
2018-03-18T07:28:09.462Z,77.65
2018-03-18T07:29:09.268Z,77.23
2018-03-18T07:30:09.303Z,77.71
2018-03-18T07:31:09.311Z,76.38
2018-03-18T07:32:09.383Z,76.48
2018-03-18T07:33:09.398Z,77.30
2018-03-18T07:34:09.383Z,77.20
2018-03-18T07:35:09.409Z,77.52
2018-03-18T07:36:09.304Z,77.32
2018-03-18T07:37:09.321Z,77.08
2018-03-18T07:38:09.338Z,77.32
2018-03-18T07:39:09.368Z,77.24
2018-03-18T07:40:09.328Z,77.50
2018-03-18T07:41:09.336Z,76.03
2018-03-18T07:42:09.392Z,76.14
2018-03-18T07:43:09.350Z,76.85
2018-03-18T07:44:09.280Z,76.34
2018-03-18T07:45:09.573Z,76.10
2018-03-18T07:46:09.343Z,76.75
2018-03-18T07:47:09.384Z,76.78
2018-03-18T07:48:09.388Z,76.05
2018-03-18T07:49:09.392Z,76.22
2018-03-18T07:50:09.289Z,76.64
2018-03-18T07:51:09.300Z,76.67
2018-03-18T07:52:09.354Z,76.60
2018-03-18T07:53:09.412Z,76.87
2018-03-18T07:54:09.324Z,76.46
2018-03-18T07:55:09.335Z,75.42
2018-03-18T07:56:09.341Z,75.62
2018-03-18T07:57:09.373Z,74.75
2018-03-18T07:58:09.362Z,75.40
2018-03-18T07:59:09.572Z,76.00
2018-03-18T08:00:10.601Z,76.48
2018-03-18T08:01:09.304Z,75.51
2018-03-18T08:02:09.380Z,75.86
2018-03-18T08:03:09.312Z,75.84
2018-03-18T08:04:09.405Z,74.78
2018-03-18T08:05:09.509Z,74.84
2018-03-18T08:06:09.291Z,75.77
2018-03-18T08:07:09.312Z,75.13
2018-03-18T08:08:09.379Z,75.44
2018-03-18T08:09:09.379Z,74.26
2018-03-18T08:10:09.433Z,74.65
2018-03-18T08:11:09.280Z,75.65
2018-03-18T08:12:09.301Z,75.97
2018-03-18T08:13:09.358Z,75.24
2018-03-18T08:14:09.379Z,74.37
2018-03-18T08:15:09.363Z,74.91
2018-03-18T08:16:09.372Z,75.03
2018-03-18T08:17:09.392Z,75.51
2018-03-18T08:18:09.392Z,75.68
2018-03-18T08:19:09.395Z,75.08
2018-03-18T08:20:09.328Z,75.27
2018-03-18T08:21:09.407Z,74.06
2018-03-18T08:22:09.438Z,74.03
2018-03-18T08:23:09.316Z,74.19
2018-03-18T08:24:09.353Z,73.79
2018-03-18T08:25:09.368Z,72.22
2018-03-18T08:26:09.349Z,71.93
2018-03-18T08:27:09.448Z,72.11
2018-03-18T08:28:09.352Z,72.58
2018-03-18T08:29:09.368Z,70.77
2018-03-18T08:30:09.331Z,71.22
2018-03-18T08:31:09.377Z,72.21
2018-03-18T08:32:09.874Z,71.05
2018-03-18T08:33:09.421Z,71.51
2018-03-18T08:34:09.409Z,71.45
2018-03-18T08:35:09.413Z,70.19
2018-03-18T08:36:10.363Z,71.73
2018-03-18T08:37:09.420Z,71.38
2018-03-18T08:38:09.433Z,70.43
2018-03-18T08:39:11.819Z,69.20
2018-03-18T08:40:09.347Z,68.61
2018-03-18T08:41:09.965Z,70.93
2018-03-18T08:42:09.444Z,71.70
2018-03-18T08:43:09.360Z,70.18
2018-03-18T08:44:09.381Z,69.07
2018-03-18T08:45:09.393Z,69.42
2018-03-18T08:46:09.380Z,70.68
2018-03-18T08:47:09.401Z,70.63
2018-03-18T08:48:09.418Z,70.78
2018-03-18T08:49:09.400Z,70.07
2018-03-18T08:50:09.334Z,69.36
2018-03-18T08:51:09.444Z,69.33
2018-03-18T08:52:09.424Z,70.10
2018-03-18T08:53:09.309Z,70.70
2018-03-18T08:54:09.368Z,70.35
2018-03-18T08:55:09.489Z,70.89
2018-03-18T08:56:09.421Z,70.33
2018-03-18T08:57:09.321Z,69.52
2018-03-18T08:58:09.374Z,70.04
2018-03-18T08:59:09.370Z,70.24
2018-03-18T09:00:10.542Z,68.26
2018-03-18T09:01:09.337Z,67.96
2018-03-18T09:02:09.397Z,67.70
2018-03-18T09:03:09.383Z,67.73
2018-03-18T09:04:09.413Z,66.53
2018-03-18T09:05:09.435Z,67.13
2018-03-18T09:06:09.447Z,66.17
2018-03-18T09:07:09.452Z,66.84
2018-03-18T09:08:09.446Z,67.58
2018-03-18T09:09:09.335Z,67.37
2018-03-18T09:10:09.450Z,63.89
2018-03-18T09:11:09.320Z,64.39
2018-03-18T09:12:09.366Z,67.70
2018-03-18T09:13:09.372Z,65.99
2018-03-18T09:14:09.374Z,66.83
2018-03-18T09:15:09.393Z,67.19
2018-03-18T09:16:09.334Z,67.50
2018-03-18T09:17:09.407Z,67.30
2018-03-18T09:18:09.397Z,65.58
2018-03-18T09:19:09.537Z,64.97
2018-03-18T09:20:09.425Z,63.15
2018-03-18T09:21:09.418Z,64.42
2018-03-18T09:22:09.437Z,64.86
2018-03-18T09:23:21.983Z,65.90
2018-03-18T09:24:09.390Z,65.41
2018-03-18T09:25:09.357Z,65.78
2018-03-18T09:26:09.453Z,68.12
2018-03-18T09:27:09.460Z,67.61
2018-03-18T09:28:09.372Z,68.01
2018-03-18T09:29:09.363Z,66.19
2018-03-18T09:30:10.633Z,67.21
2018-03-18T09:31:09.388Z,67.12
2018-03-18T09:32:09.402Z,68.17
2018-03-18T09:33:09.397Z,66.98
2018-03-18T09:34:09.404Z,64.65
2018-03-18T09:35:09.424Z,64.09
2018-03-18T09:36:09.893Z,66.17
2018-03-18T09:37:38.727Z,64.63
2018-03-18T09:38:44.319Z,63.80
2018-03-18T09:39:47.639Z,67.13
2018-03-18T09:40:44.153Z,64.62
2018-03-18T09:41:46.179Z,66.49
2018-03-18T09:42:43.597Z,64.58
2018-03-18T09:43:44.802Z,65.22
2018-03-18T09:44:58.881Z,64.54
2018-03-18T09:45:48.476Z,65.59
2018-03-18T09:47:40.390Z,61.75
2018-03-18T09:48:49.469Z,64.35
2018-03-18T09:49:42.981Z,67.53
2018-03-18T09:50:47.790Z,65.69
2018-03-18T09:51:40.233Z,66.73
2018-03-18T09:52:58.273Z,63.13
2018-03-18T09:54:02.474Z,65.04
2018-03-18T09:54:57.184Z,63.89
2018-03-18T09:55:41.481Z,62.18
2018-03-18T09:56:46.182Z,64.66
2018-03-18T09:57:22.333Z,67.00
2018-03-18T09:58:21.407Z,64.06
2018-03-18T09:59:22.770Z,63.85
2018-03-18T10:00:24.187Z,65.44
2018-03-18T10:01:22.766Z,64.56
2018-03-18T10:02:27.416Z,65.26
2018-03-18T10:03:29.291Z,66.85
2018-03-18T10:04:29.393Z,64.89
2018-03-18T10:05:22.882Z,65.09
2018-03-18T10:06:35.752Z,65.99
2018-03-18T10:07:24.656Z,62.83
2018-03-18T10:08:25.641Z,60.98
2018-03-18T10:09:30.880Z,66.40
2018-03-18T10:10:23.173Z,62.85
2018-03-18T10:11:27.462Z,64.83
2018-03-18T10:12:22.692Z,62.32
2018-03-18T10:13:22.906Z,63.99
2018-03-18T10:14:30.471Z,64.13
2018-03-18T10:15:22.122Z,63.30
2018-03-18T10:16:24.731Z,62.51
2018-03-18T10:17:25.894Z,63.13
2018-03-18T10:18:24.496Z,63.17
2018-03-18T10:19:22.654Z,60.36
2018-03-18T10:20:33.636Z,62.03
2018-03-18T10:21:16.576Z,65.41
2018-03-18T10:22:23.476Z,62.06
2018-03-18T10:23:25.897Z,62.10
2018-03-18T10:24:21.386Z,61.52
2018-03-18T10:25:22.464Z,64.27
2018-03-18T10:26:13.984Z,62.78
2018-03-18T10:27:09.468Z,62.47
2018-03-18T10:28:27.580Z,66.26
2018-03-18T10:29:20.322Z,60.17
2018-03-18T10:30:28.099Z,62.67
2018-03-18T10:31:13.781Z,60.39
2018-03-18T10:32:24.980Z,61.99
2018-03-18T10:33:22.162Z,62.96
2018-03-18T10:34:13.916Z,62.74
2018-03-18T10:35:10.251Z,62.20
2018-03-18T10:36:22.270Z,60.60
2018-03-18T10:37:18.452Z,63.81
2018-03-18T10:38:22.081Z,60.75
2018-03-18T10:39:12.321Z,61.40
2018-03-18T10:40:22.426Z,62.57
2018-03-18T10:41:26.164Z,64.86
2018-03-18T10:42:22.680Z,61.77
2018-03-18T10:43:22.651Z,61.73
2018-03-18T10:44:12.616Z,60.95
2018-03-18T10:45:24.782Z,61.20
2018-03-18T10:46:29.296Z,64.81
2018-03-18T10:47:09.512Z,62.43
2018-03-18T10:48:09.513Z,62.00
2018-03-18T10:49:10.582Z,60.39
2018-03-18T10:50:09.421Z,60.11
2018-03-18T10:51:09.433Z,58.88
2018-03-18T10:52:09.442Z,60.52
2018-03-18T10:53:09.438Z,59.30
2018-03-18T10:54:09.445Z,61.54
2018-03-18T10:55:09.452Z,61.36
2018-03-18T10:56:09.465Z,61.82
2018-03-18T10:57:09.493Z,60.49
2018-03-18T10:58:09.604Z,62.04
2018-03-18T10:59:09.483Z,64.23
2018-03-18T11:00:10.629Z,61.98
2018-03-18T11:01:09.495Z,60.89
2018-03-18T11:02:09.505Z,61.63
2018-03-18T11:03:09.518Z,62.32
2018-03-18T11:04:09.521Z,62.89
2018-03-18T11:05:09.428Z,61.20
2018-03-18T11:06:09.528Z,63.20
2018-03-18T11:07:09.441Z,62.07
2018-03-18T11:08:09.543Z,60.88
2018-03-18T11:09:09.455Z,61.72
2018-03-18T11:10:09.481Z,59.35
2018-03-18T11:11:09.480Z,59.48
2018-03-18T11:12:09.471Z,60.70
2018-03-18T11:13:09.533Z,61.15
2018-03-18T11:14:09.473Z,62.23
2018-03-18T11:15:09.508Z,62.66
2018-03-18T11:16:09.538Z,60.99
2018-03-18T11:17:09.504Z,61.12
2018-03-18T11:18:17.628Z,60.34
2018-03-18T11:19:09.417Z,63.22
2018-03-18T11:20:09.524Z,63.26
2018-03-18T11:21:09.434Z,61.42
2018-03-18T11:22:09.447Z,61.27
2018-03-18T11:23:09.453Z,62.97
2018-03-18T11:24:09.446Z,61.49
2018-03-18T11:25:09.468Z,63.69
2018-03-18T11:26:12.442Z,62.77
2018-03-18T11:27:09.519Z,63.07
2018-03-18T11:28:09.500Z,63.76
2018-03-18T11:29:09.517Z,61.87
2018-03-18T11:30:09.512Z,61.83
2018-03-18T11:31:10.121Z,64.62
2018-03-18T11:32:09.505Z,63.77
2018-03-18T11:33:09.546Z,60.35
2018-03-18T11:34:09.521Z,60.65
2018-03-18T11:35:09.533Z,61.42
2018-03-18T11:36:10.023Z,61.73
2018-03-18T11:37:10.308Z,64.13
2018-03-18T11:38:10.396Z,60.05
2018-03-18T11:39:09.458Z,62.64
2018-03-18T11:40:09.465Z,62.00
2018-03-18T11:41:09.464Z,61.99
2018-03-18T11:42:09.583Z,62.06
2018-03-18T11:43:09.496Z,60.34
2018-03-18T11:44:09.527Z,60.48
2018-03-18T11:45:09.615Z,61.01
2018-03-18T11:46:10.842Z,61.29
2018-03-18T11:47:09.513Z,60.28
2018-03-18T11:48:09.529Z,61.21
2018-03-18T11:49:09.529Z,60.65
2018-03-18T11:50:10.177Z,60.17
2018-03-18T11:51:09.440Z,59.98
2018-03-18T11:52:09.821Z,62.01
2018-03-18T11:53:10.372Z,64.14
2018-03-18T11:54:09.924Z,61.97
2018-03-18T11:55:09.569Z,59.57
2018-03-18T11:56:09.464Z,60.14
2018-03-18T11:57:09.461Z,60.65
2018-03-18T11:58:09.476Z,61.75
2018-03-18T11:59:09.501Z,62.48
2018-03-18T12:00:10.726Z,63.07
2018-03-18T12:01:09.521Z,62.55
2018-03-18T12:02:09.512Z,61.38
2018-03-18T12:03:09.513Z,60.57
2018-03-18T12:04:09.532Z,57.73
2018-03-18T12:05:09.435Z,58.24
2018-03-18T12:06:09.645Z,58.26
2018-03-18T12:07:09.542Z,60.63
2018-03-18T12:08:09.456Z,60.36
2018-03-18T12:09:09.490Z,60.41
2018-03-18T12:10:09.466Z,60.06
2018-03-18T12:11:09.467Z,58.90
2018-03-18T12:12:09.478Z,59.77
2018-03-18T12:13:09.504Z,59.21
2018-03-18T12:14:09.542Z,59.42
2018-03-18T12:15:09.496Z,59.32
2018-03-18T12:16:09.513Z,61.21
2018-03-18T12:17:09.525Z,60.77
2018-03-18T12:18:09.517Z,61.20
2018-03-18T12:19:09.536Z,62.46
2018-03-18T12:20:09.451Z,59.39
2018-03-18T12:21:09.551Z,60.46
2018-03-18T12:22:09.562Z,59.81
2018-03-18T12:23:09.551Z,60.40
2018-03-18T12:24:09.566Z,61.17
2018-03-18T12:25:09.464Z,60.58
2018-03-18T12:26:09.469Z,60.09
2018-03-18T12:27:09.477Z,59.98
2018-03-18T12:28:09.484Z,59.94
2018-03-18T12:29:09.596Z,61.65
2018-03-18T12:30:09.516Z,61.28
2018-03-18T12:31:09.509Z,61.79
2018-03-18T12:32:09.513Z,61.31
2018-03-18T12:33:09.474Z,60.07
2018-03-18T12:34:09.632Z,60.30
2018-03-18T12:35:09.440Z,59.73
2018-03-18T12:36:09.552Z,59.74
2018-03-18T12:37:09.560Z,61.34
2018-03-18T12:38:09.559Z,60.14
2018-03-18T12:39:09.605Z,59.89
2018-03-18T12:40:09.583Z,58.85
2018-03-18T12:41:09.440Z,59.12
2018-03-18T12:42:09.452Z,61.36
2018-03-18T12:43:09.506Z,61.32
2018-03-18T12:44:09.491Z,59.82
2018-03-18T12:45:09.510Z,62.25
2018-03-18T12:46:09.502Z,60.95
2018-03-18T12:47:09.511Z,61.47
2018-03-18T12:48:09.524Z,59.33
2018-03-18T12:49:09.533Z,58.53
2018-03-18T12:50:09.535Z,62.63
2018-03-18T12:51:09.557Z,60.82
2018-03-18T12:52:09.557Z,60.70
2018-03-18T12:53:09.680Z,61.27